createdAt,value
2017-12-02T00:00:53.281Z,3.16
2017-12-02T00:01:57.596Z,3.13
2017-12-02T00:03:02.945Z,3.06
2017-12-02T00:04:07.208Z,3.09
2017-12-02T00:05:11.467Z,2.88
2017-12-02T00:06:15.811Z,2.81
2017-12-02T00:07:25.845Z,2.79
2017-12-02T00:08:30.127Z,2.68
2017-12-02T00:09:38.460Z,2.71
2017-12-02T00:10:42.781Z,2.73
2017-12-02T00:11:47.214Z,2.71
2017-12-02T00:12:51.841Z,2.70
2017-12-02T00:13:56.137Z,2.82
2017-12-02T00:15:00.426Z,2.98
2017-12-02T00:16:05.182Z,3.05
2017-12-02T00:17:15.850Z,3.02
2017-12-02T00:18:21.453Z,3.02
2017-12-02T00:19:25.773Z,3.03
2017-12-02T00:20:30.629Z,3.11
2017-12-02T00:21:35.026Z,3.14
2017-12-02T00:22:39.668Z,3.35
2017-12-02T00:23:44.009Z,3.61
2017-12-02T00:24:48.660Z,3.63
2017-12-02T00:25:52.934Z,3.64
2017-12-02T00:26:57.338Z,3.72
2017-12-02T00:28:02.843Z,3.84
2017-12-02T00:29:07.066Z,3.72
2017-12-02T00:30:26.569Z,3.98
2017-12-02T00:31:30.827Z,4.31
2017-12-02T00:32:35.894Z,4.19
2017-12-02T00:33:40.131Z,4.18
2017-12-02T00:34:44.404Z,4.18
2017-12-02T00:35:48.764Z,4.17
2017-12-02T00:36:53.089Z,4.05
2017-12-02T00:37:59.112Z,3.71
2017-12-02T00:39:03.667Z,3.60
2017-12-02T00:40:07.946Z,3.40
2017-12-02T00:41:12.548Z,3.19
2017-12-02T00:42:18.360Z,3.25
2017-12-02T00:43:23.799Z,3.15
2017-12-02T00:44:28.137Z,3.22
2017-12-02T00:45:33.451Z,3.36
2017-12-02T00:46:37.973Z,3.41
2017-12-02T00:47:42.445Z,3.37
2017-12-02T00:48:47.178Z,3.30
2017-12-02T00:49:51.794Z,3.29
2017-12-02T00:50:56.133Z,3.35
2017-12-02T00:52:00.559Z,3.58
2017-12-02T00:53:05.507Z,3.60
2017-12-02T00:54:09.857Z,3.51
2017-12-02T00:55:16.794Z,3.45
2017-12-02T00:56:21.488Z,3.59
2017-12-02T00:57:32.676Z,3.87
2017-12-02T00:58:37.588Z,4.07
2017-12-02T00:59:41.907Z,4.02
2017-12-02T01:00:46.542Z,3.85
2017-12-02T01:01:51.504Z,3.64
2017-12-02T01:02:56.696Z,3.49
2017-12-02T01:04:00.995Z,3.40
2017-12-02T01:05:05.247Z,3.32
2017-12-02T01:06:09.796Z,3.26
2017-12-02T01:07:14.009Z,3.25
2017-12-02T01:08:19.213Z,3.12
2017-12-02T01:09:23.412Z,3.04
2017-12-02T01:10:27.768Z,2.98
2017-12-02T01:11:32.103Z,3.06
2017-12-02T01:12:36.549Z,3.04
2017-12-02T01:13:41.099Z,2.82
2017-12-02T01:14:45.665Z,2.62
2017-12-02T01:15:50.149Z,2.74
2017-12-02T01:16:54.684Z,2.86
2017-12-02T01:17:59.262Z,2.85
2017-12-02T01:19:03.565Z,2.69
2017-12-02T01:20:07.832Z,2.63
2017-12-02T01:21:12.570Z,2.58
2017-12-02T01:22:16.852Z,2.66
2017-12-02T01:23:21.498Z,2.76
2017-12-02T01:24:26.324Z,2.77
2017-12-02T01:25:31.049Z,2.80
2017-12-02T01:26:36.838Z,2.91
2017-12-02T01:27:41.034Z,2.99
2017-12-02T01:28:45.379Z,3.01
2017-12-02T01:29:49.616Z,3.14
2017-12-02T01:30:53.829Z,3.15
2017-12-02T01:31:58.126Z,3.09
2017-12-02T01:33:02.507Z,3.05
2017-12-02T01:34:07.105Z,2.92
2017-12-02T01:35:11.651Z,2.65
2017-12-02T01:36:23.681Z,2.40
2017-12-02T01:37:28.244Z,2.32
2017-12-02T01:38:32.462Z,2.21
2017-12-02T01:39:37.544Z,2.17
2017-12-02T01:40:41.731Z,2.06
2017-12-02T01:41:46.067Z,1.89
2017-12-02T01:42:51.357Z,1.74
2017-12-02T01:43:55.987Z,1.69
2017-12-02T01:45:00.397Z,1.65
2017-12-02T01:46:05.030Z,1.58
2017-12-02T01:47:09.555Z,1.75
2017-12-02T01:48:14.181Z,1.64
2017-12-02T01:49:18.482Z,1.54
2017-12-02T01:50:23.392Z,1.51
2017-12-02T01:51:27.842Z,1.58
2017-12-02T01:52:32.853Z,1.84
2017-12-02T01:53:37.086Z,1.96
2017-12-02T01:54:41.321Z,2.11
2017-12-02T01:55:45.872Z,2.09
2017-12-02T01:56:50.762Z,1.82
2017-12-02T01:57:55.135Z,1.68
2017-12-02T01:58:59.456Z,1.65
2017-12-02T02:00:10.557Z,1.79
2017-12-02T02:01:14.967Z,1.96
2017-12-02T02:02:20.193Z,1.82
2017-12-02T02:03:24.493Z,1.58
2017-12-02T02:04:28.732Z,1.38
2017-12-02T02:05:33.646Z,1.25
2017-12-02T02:06:38.866Z,1.17
2017-12-02T02:07:43.084Z,1.18
2017-12-02T02:08:47.913Z,1.18
2017-12-02T02:09:52.143Z,1.25
2017-12-02T02:10:56.440Z,1.33
2017-12-02T02:12:01.780Z,1.44
2017-12-02T02:13:05.998Z,1.44
2017-12-02T02:14:10.261Z,1.54
2017-12-02T02:15:16.232Z,1.61
2017-12-02T02:16:21.030Z,1.75
2017-12-02T02:17:25.445Z,1.90
2017-12-02T02:18:29.742Z,1.98
2017-12-02T02:19:34.266Z,2.05
2017-12-02T02:20:39.443Z,2.05
2017-12-02T02:21:44.084Z,2.12
2017-12-02T02:22:50.571Z,2.18
2017-12-02T02:23:54.835Z,2.18
2017-12-02T02:24:59.079Z,2.14
2017-12-02T02:26:03.672Z,2.13
2017-12-02T02:27:08.234Z,2.27
2017-12-02T02:28:12.538Z,2.22
2017-12-02T02:29:17.147Z,2.31
2017-12-02T02:30:22.643Z,2.29
2017-12-02T02:31:27.566Z,2.21
2017-12-02T02:32:34.124Z,2.25
2017-12-02T02:33:38.686Z,2.10
2017-12-02T02:34:42.961Z,1.89
2017-12-02T02:35:47.250Z,1.92
2017-12-02T02:36:51.784Z,2.05
2017-12-02T02:37:56.067Z,2.09
2017-12-02T02:39:00.723Z,2.08
2017-12-02T02:40:05.039Z,2.24
2017-12-02T02:41:09.517Z,2.58
2017-12-02T02:42:13.760Z,2.69
2017-12-02T02:43:21.753Z,2.66
2017-12-02T02:44:25.980Z,2.41
2017-12-02T02:45:30.638Z,1.86
2017-12-02T02:46:35.340Z,1.45
2017-12-02T02:47:39.644Z,1.12
2017-12-02T02:48:44.024Z,0.86
2017-12-02T02:49:48.208Z,0.77
2017-12-02T02:50:52.462Z,0.67
2017-12-02T02:51:57.067Z,0.58
2017-12-02T02:53:01.630Z,0.49
2017-12-02T02:54:06.355Z,0.49
2017-12-02T02:55:10.599Z,0.40
2017-12-02T02:56:18.892Z,0.35
2017-12-02T02:57:23.266Z,0.62
2017-12-02T02:58:27.525Z,0.74
2017-12-02T02:59:31.841Z,0.93
2017-12-02T03:00:36.246Z,0.99
2017-12-02T03:01:40.807Z,0.97
2017-12-02T03:02:45.053Z,0.66
2017-12-02T03:03:49.631Z,0.44
2017-12-02T03:04:54.848Z,0.27
2017-12-02T03:05:59.137Z,0.17
2017-12-02T03:07:03.401Z,0.09
2017-12-02T03:08:10.858Z,0.00
2017-12-02T03:09:15.473Z,-0.03
2017-12-02T03:10:19.918Z,-0.06
2017-12-02T03:11:24.152Z,-0.01
2017-12-02T03:12:30.362Z,-0.03
2017-12-02T03:13:36.411Z,-0.12
2017-12-02T03:14:41.598Z,-0.13
2017-12-02T03:15:45.941Z,-0.14
2017-12-02T03:16:50.435Z,-0.12
2017-12-02T03:17:54.716Z,-0.11
2017-12-02T03:18:59.031Z,-0.12
2017-12-02T03:20:03.372Z,-0.15
2017-12-02T03:21:08.243Z,-0.14
2017-12-02T03:22:12.462Z,-0.17
2017-12-02T03:23:16.665Z,-0.18
2017-12-02T03:24:22.255Z,-0.19
2017-12-02T03:25:26.492Z,-0.21
2017-12-02T03:26:30.716Z,-0.22
2017-12-02T03:27:36.502Z,-0.23
2017-12-02T03:28:40.801Z,-0.22
2017-12-02T03:29:45.140Z,-0.23
2017-12-02T03:30:49.622Z,-0.24
2017-12-02T03:31:54.022Z,-0.24
2017-12-02T03:32:59.437Z,-0.27
2017-12-02T03:34:03.684Z,-0.26
2017-12-02T03:35:07.986Z,-0.28
2017-12-02T03:36:12.213Z,-0.29
2017-12-02T03:37:16.451Z,-0.33
2017-12-02T03:38:21.551Z,-0.36
2017-12-02T03:39:25.791Z,-0.38
2017-12-02T03:40:30.656Z,-0.42
2017-12-02T03:41:36.034Z,-0.41
2017-12-02T03:42:40.396Z,-0.38
2017-12-02T03:43:45.025Z,-0.37
2017-12-02T03:44:49.528Z,-0.41
2017-12-02T03:45:54.231Z,-0.43
2017-12-02T03:46:58.489Z,-0.44
2017-12-02T03:48:03.670Z,-0.45
2017-12-02T03:49:07.889Z,-0.49
2017-12-02T03:50:12.400Z,-0.51
2017-12-02T03:51:16.737Z,-0.52
2017-12-02T03:52:21.781Z,-0.53
2017-12-02T03:53:26.048Z,-0.54
2017-12-02T03:54:30.304Z,-0.52
2017-12-02T03:55:35.184Z,-0.52
2017-12-02T03:56:40.422Z,-0.54
2017-12-02T03:57:44.657Z,-0.56
2017-12-02T03:58:48.975Z,-0.57
2017-12-02T03:59:53.452Z,-0.58
2017-12-02T04:00:57.873Z,-0.58
2017-12-02T04:02:02.538Z,-0.59
2017-12-02T04:03:06.872Z,-0.58
2017-12-02T04:04:11.229Z,-0.53
2017-12-02T04:05:21.475Z,-0.54
2017-12-02T04:06:26.042Z,-0.56
2017-12-02T04:07:30.486Z,-0.54
2017-12-02T04:08:35.956Z,-0.57
2017-12-02T04:09:40.183Z,-0.61
2017-12-02T04:10:44.508Z,-0.63
2017-12-02T04:11:48.912Z,-0.65
2017-12-02T04:12:53.267Z,-0.59
2017-12-02T04:13:57.617Z,-0.40
2017-12-02T04:15:03.535Z,-0.15
2017-12-02T04:16:08.259Z,-0.21
2017-12-02T04:17:12.764Z,-0.34
2017-12-02T04:18:18.153Z,-0.45
2017-12-02T04:19:22.562Z,-0.53
2017-12-02T04:20:27.760Z,-0.59
2017-12-02T04:21:32.073Z,-0.63
2017-12-02T04:22:36.396Z,-0.67
2017-12-02T04:23:40.655Z,-0.67
2017-12-02T04:24:44.844Z,-0.61
2017-12-02T04:25:49.109Z,-0.62
2017-12-02T04:26:53.864Z,-0.66
2017-12-02T04:27:58.210Z,-0.69
2017-12-02T04:29:02.499Z,-0.70
2017-12-02T04:30:07.570Z,-0.75
2017-12-02T04:31:12.308Z,-0.73
2017-12-02T04:32:18.821Z,-0.71
2017-12-02T04:33:23.790Z,-0.72
2017-12-02T04:34:28.052Z,-0.70
2017-12-02T04:35:32.310Z,-0.70
2017-12-02T04:36:36.515Z,-0.63
2017-12-02T04:37:40.792Z,-0.53
2017-12-02T04:38:45.096Z,-0.41
2017-12-02T04:39:49.699Z,-0.34
2017-12-02T04:40:54.190Z,-0.26
2017-12-02T04:41:58.429Z,-0.17
2017-12-02T04:43:02.833Z,-0.07
2017-12-02T04:44:07.091Z,-0.02
2017-12-02T04:45:16.069Z,-0.01
2017-12-02T04:46:20.661Z,0.07
2017-12-02T04:47:25.522Z,0.20
2017-12-02T04:48:30.046Z,0.40
2017-12-02T04:49:34.248Z,0.44
2017-12-02T04:50:38.525Z,0.42
2017-12-02T04:51:43.132Z,0.35
2017-12-02T04:52:47.337Z,0.28
2017-12-02T04:53:51.649Z,0.23
2017-12-02T04:54:55.897Z,0.21
2017-12-02T04:56:00.213Z,0.29
2017-12-02T04:57:19.578Z,0.27
2017-12-02T04:58:25.366Z,0.29
2017-12-02T04:59:29.645Z,0.35
2017-12-02T05:00:34.553Z,0.36
2017-12-02T05:01:38.793Z,0.30
2017-12-02T05:02:43.712Z,0.43
2017-12-02T05:03:48.017Z,0.48
2017-12-02T05:04:52.227Z,0.59
2017-12-02T05:05:56.652Z,0.71
2017-12-02T05:07:01.142Z,0.77
2017-12-02T05:08:05.436Z,0.70
2017-12-02T05:09:10.012Z,0.68
2017-12-02T05:10:14.402Z,0.72
2017-12-02T05:11:18.617Z,0.71
2017-12-02T05:12:22.893Z,0.66
2017-12-02T05:13:27.192Z,0.55
2017-12-02T05:14:31.478Z,0.56
2017-12-02T05:15:37.204Z,0.57
2017-12-02T05:16:41.433Z,0.60
2017-12-02T05:17:45.679Z,0.50
2017-12-02T05:18:49.996Z,0.50
2017-12-02T05:19:54.241Z,0.42
2017-12-02T05:20:58.555Z,0.41
2017-12-02T05:22:03.144Z,0.38
2017-12-02T05:23:07.791Z,0.54
2017-12-02T05:24:12.105Z,0.47
2017-12-02T05:25:17.003Z,0.44
2017-12-02T05:26:21.254Z,0.49
2017-12-02T05:27:25.521Z,0.48
2017-12-02T05:28:30.093Z,0.49
2017-12-02T05:29:35.224Z,0.55
2017-12-02T05:30:39.782Z,0.70
2017-12-02T05:31:44.810Z,0.75
2017-12-02T05:32:49.032Z,0.73
2017-12-02T05:33:53.644Z,0.75
2017-12-02T05:34:58.271Z,0.85
2017-12-02T05:36:02.539Z,0.82
2017-12-02T05:37:06.773Z,0.80
2017-12-02T05:38:11.023Z,0.82
2017-12-02T05:39:15.386Z,0.97
2017-12-02T05:40:19.747Z,1.04
2017-12-02T05:41:24.934Z,0.99
2017-12-02T05:42:29.863Z,0.93
2017-12-02T05:43:35.042Z,0.99
2017-12-02T05:44:39.285Z,1.01
2017-12-02T05:45:43.975Z,1.09
2017-12-02T05:46:48.199Z,1.07
2017-12-02T05:47:52.828Z,1.10
2017-12-02T05:48:57.038Z,1.12
2017-12-02T05:50:01.295Z,1.05
2017-12-02T05:51:06.031Z,0.93
2017-12-02T05:52:10.303Z,0.85
2017-12-02T05:53:14.853Z,0.76
2017-12-02T05:54:19.337Z,0.81
2017-12-02T05:55:23.581Z,0.79
2017-12-02T05:56:27.921Z,0.72
2017-12-02T05:57:32.458Z,0.70
2017-12-02T05:58:36.724Z,0.59
2017-12-02T05:59:41.056Z,0.58
2017-12-02T06:00:46.659Z,0.52
2017-12-02T06:01:51.377Z,0.51
2017-12-02T06:02:55.928Z,0.52
2017-12-02T06:04:00.295Z,0.52
2017-12-02T06:05:04.612Z,0.67
2017-12-02T06:06:08.908Z,0.81
2017-12-02T06:07:13.599Z,0.81
2017-12-02T06:08:18.214Z,0.85
2017-12-02T06:09:22.478Z,0.89
2017-12-02T06:10:26.803Z,0.78
2017-12-02T06:11:31.142Z,0.84
2017-12-02T06:12:36.522Z,0.87
2017-12-02T06:13:41.074Z,0.82
2017-12-02T06:14:45.322Z,0.76
2017-12-02T06:15:49.980Z,0.76
2017-12-02T06:16:54.542Z,0.68
2017-12-02T06:17:58.880Z,0.61
2017-12-02T06:19:03.300Z,0.65
2017-12-02T06:20:09.300Z,0.82
2017-12-02T06:21:14.148Z,0.86
2017-12-02T06:22:19.678Z,0.85
2017-12-02T06:23:24.883Z,0.83
2017-12-02T06:24:29.381Z,0.87
2017-12-02T06:25:33.703Z,0.81
2017-12-02T06:26:38.014Z,0.73
2017-12-02T06:27:42.358Z,0.76
2017-12-02T06:28:46.942Z,0.77
2017-12-02T06:29:51.577Z,0.80
2017-12-02T06:30:55.856Z,0.97
2017-12-02T06:32:00.541Z,0.91
2017-12-02T06:33:06.883Z,0.68
2017-12-02T06:34:11.591Z,0.81
2017-12-02T06:35:15.784Z,0.67
2017-12-02T06:36:20.093Z,0.68
2017-12-02T06:37:24.317Z,0.59
2017-12-02T06:38:29.017Z,0.69
2017-12-02T06:39:33.685Z,0.61
2017-12-02T06:40:38.811Z,0.63
2017-12-02T06:41:43.344Z,0.57
2017-12-02T06:42:47.580Z,0.54
2017-12-02T06:43:52.056Z,0.44
2017-12-02T06:44:56.621Z,0.35
2017-12-02T06:46:01.248Z,0.38
2017-12-02T06:47:05.575Z,0.43
2017-12-02T06:48:12.658Z,0.41
2017-12-02T06:49:16.957Z,0.35
2017-12-02T06:50:22.696Z,0.38
2017-12-02T06:51:27.221Z,0.40
2017-12-02T06:52:32.437Z,0.43
2017-12-02T06:53:36.688Z,0.42
2017-12-02T06:54:41.397Z,0.35
2017-12-02T06:55:45.637Z,0.37
2017-12-02T06:56:50.419Z,0.33
2017-12-02T06:57:54.696Z,0.31
2017-12-02T06:58:58.921Z,0.40
2017-12-02T07:00:05.054Z,0.31
2017-12-02T07:01:09.467Z,0.34
2017-12-02T07:02:13.812Z,0.34
2017-12-02T07:03:18.445Z,0.46
2017-12-02T07:04:26.545Z,0.52
2017-12-02T07:05:31.428Z,0.48
2017-12-02T07:06:37.669Z,0.49
2017-12-02T07:07:42.043Z,0.39
2017-12-02T07:08:47.332Z,0.35
2017-12-02T07:09:52.818Z,0.41
2017-12-02T07:10:57.433Z,0.52
2017-12-02T07:12:02.221Z,0.47
2017-12-02T07:13:06.737Z,0.52
2017-12-02T07:14:11.127Z,0.66
2017-12-02T07:15:16.406Z,0.78
2017-12-02T07:16:23.544Z,0.83
2017-12-02T07:17:27.897Z,0.81
2017-12-02T07:18:32.240Z,0.81
2017-12-02T07:19:36.673Z,0.70
2017-12-02T07:20:41.313Z,0.53
2017-12-02T07:21:45.712Z,0.63
2017-12-02T07:22:50.669Z,0.51
2017-12-02T07:23:54.987Z,0.44
2017-12-02T07:24:59.337Z,0.44
2017-12-02T07:26:04.158Z,0.49
2017-12-02T07:27:09.269Z,0.61
2017-12-02T07:28:14.604Z,0.64
2017-12-02T07:29:19.713Z,0.45
2017-12-02T07:30:24.206Z,0.50
2017-12-02T07:31:29.264Z,0.46
2017-12-02T07:32:38.783Z,0.42
2017-12-02T07:33:43.789Z,0.36
2017-12-02T07:34:48.782Z,0.28
2017-12-02T07:35:53.500Z,0.31
2017-12-02T07:36:57.910Z,0.33
2017-12-02T07:38:02.698Z,0.28
2017-12-02T07:39:07.713Z,0.29
2017-12-02T07:40:12.136Z,0.24
2017-12-02T07:41:16.880Z,0.29
2017-12-02T07:42:22.432Z,0.26
2017-12-02T07:43:27.018Z,0.30
2017-12-02T07:44:33.199Z,0.24
2017-12-02T07:45:39.458Z,0.20
2017-12-02T07:46:47.642Z,0.21
2017-12-02T07:47:51.958Z,0.21
2017-12-02T07:48:56.648Z,0.20
2017-12-02T07:50:01.334Z,0.23
2017-12-02T07:51:06.175Z,0.25
2017-12-02T07:52:10.449Z,0.28
2017-12-02T07:53:14.769Z,0.44
2017-12-02T07:54:19.000Z,0.45
2017-12-02T07:55:23.619Z,0.49
2017-12-02T07:56:28.064Z,0.45
2017-12-02T07:57:33.230Z,0.50
2017-12-02T07:58:37.824Z,0.44
2017-12-02T07:59:42.152Z,0.53
2017-12-02T08:00:47.126Z,0.47
2017-12-02T08:01:51.978Z,0.44
2017-12-02T08:02:56.255Z,0.28
2017-12-02T08:04:00.990Z,0.34
2017-12-02T08:05:05.380Z,0.42
2017-12-02T08:06:09.654Z,0.31
2017-12-02T08:07:14.381Z,0.34
2017-12-02T08:08:20.631Z,0.30
2017-12-02T08:09:24.958Z,0.32
2017-12-02T08:10:29.477Z,0.31
2017-12-02T08:11:33.716Z,0.27
2017-12-02T08:12:37.954Z,0.19
2017-12-02T08:13:42.748Z,0.23
2017-12-02T08:14:47.976Z,0.29
2017-12-02T08:15:52.794Z,0.37
2017-12-02T08:16:57.366Z,0.43
2017-12-02T08:18:01.872Z,0.46
2017-12-02T08:19:06.183Z,0.44
2017-12-02T08:20:10.409Z,0.40
2017-12-02T08:21:14.644Z,0.39
2017-12-02T08:22:23.596Z,0.56
2017-12-02T08:23:29.024Z,0.55
2017-12-02T08:24:38.991Z,0.44
2017-12-02T08:25:43.248Z,0.37
2017-12-02T08:26:47.525Z,0.33
2017-12-02T08:27:51.793Z,0.28
2017-12-02T08:28:56.527Z,0.34
2017-12-02T08:30:00.807Z,0.27
2017-12-02T08:31:05.173Z,0.30
2017-12-02T08:32:10.246Z,0.44
2017-12-02T08:33:15.979Z,0.54
2017-12-02T08:34:21.658Z,0.58
2017-12-02T08:35:26.425Z,0.45
2017-12-02T08:36:31.718Z,0.34
2017-12-02T08:37:36.876Z,0.20
2017-12-02T08:38:41.115Z,0.33
2017-12-02T08:39:45.485Z,0.40
2017-12-02T08:40:50.043Z,0.37
2017-12-02T08:41:54.602Z,0.40
2017-12-02T08:42:58.986Z,0.37
2017-12-02T08:44:03.338Z,0.32
2017-12-02T08:45:07.926Z,0.36
2017-12-02T08:46:16.508Z,0.42
2017-12-02T08:47:20.843Z,0.41
2017-12-02T08:48:27.283Z,0.42
2017-12-02T08:49:32.091Z,0.49
2017-12-02T08:50:36.433Z,0.49
2017-12-02T08:51:40.726Z,0.39
2017-12-02T08:52:45.003Z,0.37
2017-12-02T08:53:49.672Z,0.60
2017-12-02T08:54:53.934Z,0.64
2017-12-02T08:55:58.236Z,0.59
2017-12-02T08:57:04.403Z,0.50
2017-12-02T08:58:08.645Z,0.48
2017-12-02T08:59:12.929Z,0.55
2017-12-02T09:00:18.189Z,0.47
2017-12-02T09:01:22.512Z,0.65
2017-12-02T09:02:27.700Z,0.70
2017-12-02T09:03:32.041Z,0.75
2017-12-02T09:04:36.309Z,0.81
2017-12-02T09:05:40.653Z,0.77
2017-12-02T09:06:45.007Z,0.79
2017-12-02T09:07:49.296Z,0.73
2017-12-02T09:08:53.536Z,0.62
2017-12-02T09:09:57.915Z,0.51
2017-12-02T09:11:03.249Z,0.50
2017-12-02T09:12:08.621Z,0.37
2017-12-02T09:13:12.964Z,0.41
2017-12-02T09:14:17.255Z,0.42
2017-12-02T09:15:21.803Z,0.35
2017-12-02T09:16:26.225Z,0.22
2017-12-02T09:17:31.318Z,0.12
2017-12-02T09:18:35.728Z,0.14
2017-12-02T09:19:40.096Z,0.17
2017-12-02T09:20:44.718Z,0.27
2017-12-02T09:21:49.127Z,0.30
2017-12-02T09:22:53.413Z,0.27
2017-12-02T09:23:58.001Z,0.35
2017-12-02T09:25:02.562Z,0.36
2017-12-02T09:26:07.181Z,0.36
2017-12-02T09:27:15.258Z,0.34
2017-12-02T09:28:20.157Z,0.34
2017-12-02T09:29:24.480Z,0.33
2017-12-02T09:30:29.567Z,0.40
2017-12-02T09:31:35.131Z,0.39
2017-12-02T09:32:39.640Z,0.35
2017-12-02T09:33:43.863Z,0.45
2017-12-02T09:34:48.144Z,0.57
2017-12-02T09:35:52.525Z,0.51
2017-12-02T09:36:56.825Z,0.44
2017-12-02T09:38:01.175Z,0.49
2017-12-02T09:39:06.626Z,0.41
2017-12-02T09:40:11.397Z,0.31
2017-12-02T09:41:16.278Z,0.44
2017-12-02T09:42:21.743Z,0.45
2017-12-02T09:43:26.104Z,0.34
2017-12-02T09:44:30.631Z,0.20
2017-12-02T09:45:35.290Z,0.07
2017-12-02T09:46:39.863Z,0.04
2017-12-02T09:47:44.223Z,-0.02
2017-12-02T09:48:48.924Z,0.00
2017-12-02T09:49:53.230Z,0.07
2017-12-02T09:50:57.478Z,0.16
2017-12-02T09:52:01.848Z,0.31
2017-12-02T09:53:07.607Z,0.42
2017-12-02T09:54:12.384Z,0.40
2017-12-02T09:55:16.961Z,0.36
2017-12-02T09:56:21.243Z,0.34
2017-12-02T09:57:25.942Z,0.48
2017-12-02T09:58:30.332Z,0.38
2017-12-02T09:59:34.991Z,0.45
2017-12-02T10:00:41.208Z,0.34
2017-12-02T10:01:45.924Z,0.24
2017-12-02T10:02:50.296Z,0.22
2017-12-02T10:03:54.658Z,0.28
2017-12-02T10:04:59.028Z,0.26
2017-12-02T10:06:03.665Z,0.30
2017-12-02T10:07:07.994Z,0.30
2017-12-02T10:09:23.042Z,0.16
2017-12-02T10:10:27.488Z,0.12
2017-12-02T10:11:31.791Z,0.16
2017-12-02T10:12:36.102Z,0.32
2017-12-02T10:13:41.121Z,0.21
2017-12-02T10:14:45.437Z,0.32
2017-12-02T10:15:50.138Z,0.36
2017-12-02T10:16:54.489Z,0.41
2017-12-02T10:17:58.945Z,0.58
2017-12-02T10:19:03.554Z,0.83
2017-12-02T10:20:07.971Z,1.01
2017-12-02T10:21:12.471Z,1.09
2017-12-02T10:22:16.933Z,1.09
2017-12-02T10:23:21.477Z,1.04
2017-12-02T10:24:25.801Z,0.88
2017-12-02T10:25:31.669Z,0.86
2017-12-02T10:26:36.550Z,0.88
2017-12-02T10:27:40.877Z,0.89
2017-12-02T10:28:45.462Z,0.81
2017-12-02T10:29:49.773Z,0.68
2017-12-02T10:30:54.706Z,0.52
2017-12-02T10:31:59.066Z,0.35
2017-12-02T10:33:04.042Z,0.16
2017-12-02T10:34:08.310Z,0.16
2017-12-02T10:35:12.682Z,0.19
2017-12-02T10:36:16.953Z,0.23
2017-12-02T10:37:21.767Z,0.24
2017-12-02T10:38:26.054Z,0.20
2017-12-02T10:39:30.457Z,0.12
2017-12-02T10:40:34.860Z,0.18
2017-12-02T10:41:39.489Z,0.18
2017-12-02T10:42:44.146Z,0.19
2017-12-02T10:43:48.880Z,0.32
2017-12-02T10:44:53.245Z,0.37
2017-12-02T10:45:57.811Z,0.29
2017-12-02T10:47:02.203Z,0.23
2017-12-02T10:48:07.204Z,0.15
2017-12-02T10:49:11.456Z,0.08
2017-12-02T10:50:15.876Z,0.13
2017-12-02T10:51:21.425Z,0.37
2017-12-02T10:52:26.205Z,0.49
2017-12-02T10:53:32.041Z,0.54
2017-12-02T10:54:36.364Z,0.72
2017-12-02T10:55:40.655Z,0.71
2017-12-02T10:56:45.189Z,0.71
2017-12-02T10:57:49.655Z,0.88
2017-12-02T10:58:54.052Z,0.90
2017-12-02T10:59:59.402Z,0.84
2017-12-02T11:01:04.017Z,0.85
2017-12-02T11:02:08.657Z,0.62
2017-12-02T11:03:13.821Z,0.76
2017-12-02T11:05:30.009Z,0.46
2017-12-02T11:06:34.449Z,0.46
2017-12-02T11:07:38.954Z,0.71
2017-12-02T11:08:44.436Z,0.90
2017-12-02T11:09:49.524Z,0.98
2017-12-02T11:10:54.566Z,0.88
2017-12-02T11:12:00.715Z,0.76
2017-12-02T11:13:05.075Z,0.61
2017-12-02T11:14:09.525Z,0.67
2017-12-02T11:15:15.575Z,0.82
2017-12-02T11:16:20.350Z,0.75
2017-12-02T11:17:26.318Z,0.83
2017-12-02T11:18:31.228Z,0.61
2017-12-02T11:19:35.540Z,0.54
2017-12-02T11:20:40.464Z,0.36
2017-12-02T11:21:44.959Z,0.42
2017-12-02T11:22:49.407Z,0.53
2017-12-02T11:23:53.711Z,0.62
2017-12-02T11:24:58.298Z,0.46
2017-12-02T11:26:02.740Z,0.50
2017-12-02T11:27:07.238Z,0.46
2017-12-02T11:28:11.633Z,0.34
2017-12-02T11:29:15.977Z,0.33
2017-12-02T11:30:20.861Z,0.38
2017-12-02T11:31:25.223Z,0.40
2017-12-02T11:32:29.741Z,0.24
2017-12-02T11:33:34.139Z,0.28
2017-12-02T11:34:39.686Z,0.32
2017-12-02T11:35:44.160Z,0.58
2017-12-02T11:36:48.520Z,0.66
2017-12-02T11:37:53.338Z,0.42
2017-12-02T11:38:58.753Z,0.43
2017-12-02T11:40:03.099Z,0.54
2017-12-02T11:41:07.803Z,0.53
2017-12-02T11:42:12.808Z,0.46
2017-12-02T11:43:18.422Z,0.49
2017-12-02T11:44:22.818Z,0.45
2017-12-02T11:45:28.271Z,0.36
2017-12-02T11:46:34.224Z,0.40
2017-12-02T11:47:38.888Z,0.66
2017-12-02T11:48:43.659Z,0.58
2017-12-02T11:49:48.314Z,0.55
2017-12-02T11:50:52.638Z,0.52
2017-12-02T11:51:57.673Z,0.49
2017-12-02T11:53:01.953Z,0.54
2017-12-02T11:54:06.328Z,0.54
2017-12-02T11:55:10.659Z,0.63
2017-12-02T11:56:14.991Z,0.58
2017-12-02T11:57:19.422Z,0.75
2017-12-02T11:58:23.979Z,0.79
2017-12-02T11:59:28.319Z,0.72
2017-12-02T12:00:34.178Z,0.65
2017-12-02T12:01:38.719Z,0.82
2017-12-02T12:02:43.427Z,0.76
2017-12-02T12:03:47.740Z,0.62
2017-12-02T12:04:53.703Z,0.47
2017-12-02T12:05:58.312Z,0.28
2017-12-02T12:07:03.029Z,0.34
2017-12-02T12:08:09.700Z,0.40
2017-12-02T12:09:14.654Z,0.49
2017-12-02T12:10:19.029Z,0.53
2017-12-02T12:12:50.731Z,0.53
2017-12-02T12:13:55.603Z,0.50
2017-12-02T12:15:00.366Z,0.52
2017-12-02T12:16:13.810Z,0.40
2017-12-02T12:17:18.376Z,0.33
2017-12-02T12:18:23.519Z,0.43
2017-12-02T12:19:28.736Z,0.40
2017-12-02T12:20:33.976Z,0.36
2017-12-02T12:21:38.572Z,0.46
2017-12-02T12:22:43.272Z,0.29
2017-12-02T12:23:48.111Z,0.31
2017-12-02T12:24:52.981Z,0.47
2017-12-02T12:25:57.262Z,0.45
2017-12-02T12:27:02.367Z,0.27
2017-12-02T12:28:07.957Z,0.23
2017-12-02T12:29:12.959Z,0.21
2017-12-02T12:30:20.250Z,0.25
2017-12-02T12:31:27.029Z,0.21
2017-12-02T12:32:34.211Z,0.16
2017-12-02T12:33:38.696Z,0.09
2017-12-02T12:34:45.418Z,0.11
2017-12-02T12:35:50.732Z,0.10
2017-12-02T12:36:55.343Z,0.28
2017-12-02T12:37:59.741Z,0.16
2017-12-02T12:39:04.269Z,0.11
2017-12-02T12:40:09.094Z,0.15
2017-12-02T12:41:13.623Z,0.09
2017-12-02T12:42:18.639Z,-0.03
2017-12-02T12:43:23.569Z,-0.16
2017-12-02T12:44:27.801Z,-0.20
2017-12-02T12:45:32.684Z,-0.12
2017-12-02T12:46:37.323Z,-0.14
2017-12-02T12:47:41.775Z,-0.09
2017-12-02T12:48:48.567Z,-0.06
2017-12-02T12:49:55.584Z,-0.19
2017-12-02T12:51:00.008Z,-0.26
2017-12-02T12:52:04.960Z,-0.30
2017-12-02T12:53:09.565Z,-0.28
2017-12-02T12:54:14.005Z,-0.35
2017-12-02T12:55:20.072Z,-0.35
2017-12-02T12:56:24.629Z,-0.41
2017-12-02T12:57:29.231Z,-0.41
2017-12-02T12:58:33.535Z,-0.35
2017-12-02T12:59:38.215Z,-0.31
2017-12-02T13:00:43.356Z,-0.31
2017-12-02T13:01:50.220Z,-0.33
2017-12-02T13:02:55.084Z,-0.36
2017-12-02T13:04:02.890Z,-0.41
2017-12-02T13:05:09.172Z,-0.39
2017-12-02T13:06:13.736Z,-0.38
2017-12-02T13:07:18.915Z,-0.45
2017-12-02T13:08:23.509Z,-0.38
2017-12-02T13:09:31.907Z,-0.38
2017-12-02T13:10:40.153Z,-0.23
2017-12-02T13:11:45.039Z,-0.15
2017-12-02T13:12:51.771Z,-0.22
2017-12-02T13:13:58.919Z,-0.11
2017-12-02T13:15:06.008Z,-0.09
2017-12-02T13:16:12.123Z,-0.10
2017-12-02T13:17:16.522Z,-0.11
2017-12-02T13:18:26.212Z,-0.21
2017-12-02T13:19:32.859Z,-0.20
2017-12-02T13:20:38.137Z,-0.24
2017-12-02T13:21:43.135Z,-0.06
2017-12-02T13:22:47.716Z,-0.04
2017-12-02T13:23:53.930Z,-0.06
2017-12-02T13:24:58.331Z,-0.14
2017-12-02T13:26:03.914Z,-0.27
2017-12-02T13:27:08.424Z,-0.40
2017-12-02T13:28:13.876Z,-0.47
2017-12-02T13:29:19.697Z,-0.54
2017-12-02T13:30:24.418Z,-0.58
2017-12-02T13:31:30.429Z,-0.46
2017-12-02T13:32:38.358Z,-0.43
2017-12-02T13:33:43.638Z,-0.55
2017-12-02T13:34:48.928Z,-0.53
2017-12-02T13:36:09.821Z,-0.54
2017-12-02T13:37:17.896Z,-0.45
2017-12-02T13:38:23.552Z,-0.40
2017-12-02T13:39:28.179Z,-0.47
2017-12-02T13:40:34.620Z,-0.55
2017-12-02T13:41:39.693Z,-0.59
2017-12-02T13:42:45.032Z,-0.53
2017-12-02T13:43:49.496Z,-0.54
2017-12-02T13:44:54.955Z,-0.58
2017-12-02T13:45:59.804Z,-0.62
2017-12-02T13:47:05.220Z,-0.74
2017-12-02T13:48:09.749Z,-0.80
2017-12-02T13:49:14.712Z,-0.69
2017-12-02T13:50:19.689Z,-0.73
2017-12-02T13:51:24.277Z,-0.74
2017-12-02T13:52:28.708Z,-0.71
2017-12-02T13:53:33.474Z,-0.77
2017-12-02T13:54:38.077Z,-0.78
2017-12-02T13:55:42.971Z,-0.80
2017-12-02T13:56:47.907Z,-0.75
2017-12-02T13:57:52.557Z,-0.81
2017-12-02T13:58:56.989Z,-0.72
2017-12-02T14:00:01.675Z,-0.69
2017-12-02T14:01:06.911Z,-0.68
2017-12-02T14:02:13.638Z,-0.75
2017-12-02T14:03:19.949Z,-0.79
2017-12-02T14:04:29.784Z,-0.83
2017-12-02T14:05:34.473Z,-0.87
2017-12-02T14:06:39.498Z,-0.84
2017-12-02T14:07:44.558Z,-0.78
2017-12-02T14:08:50.412Z,-0.69
2017-12-02T14:09:55.402Z,-0.71
2017-12-02T14:11:01.554Z,-0.72
2017-12-02T14:12:06.436Z,-0.67
2017-12-02T14:13:12.496Z,-0.68
2017-12-02T14:14:19.357Z,-0.63
2017-12-02T14:15:24.650Z,-0.73
2017-12-02T14:16:30.173Z,-0.68
2017-12-02T14:17:34.674Z,-0.51
2017-12-02T14:18:39.057Z,-0.45
2017-12-02T14:19:44.307Z,-0.44
2017-12-02T14:20:49.672Z,-0.53
2017-12-02T14:21:55.129Z,-0.58